sensor_id;sensor_type;location;lat;lon;timestamp;pressure;altitude;pressure_sealevel;temperature;humidity
43119;BME280;28729;49.838;8.650;2022-09-09T00:00:22;99292.44;;;18.07;82.57
43119;BME280;28729;49.838;8.650;2022-09-09T00:04:32;99285.66;;;17.99;82.69
43119;BME280;28729;49.838;8.650;2022-09-09T00:08:49;99297.19;;;17.93;83.24
43119;BME280;28729;49.838;8.650;2022-09-09T00:13:16;99288.97;;;17.88;83.66
43119;BME280;28729;49.838;8.650;2022-09-09T00:17:45;99283.88;;;17.90;83.76
43119;BME280;28729;49.838;8.650;2022-09-09T00:30:26;99269.13;;;18.03;83.20
43119;BME280;28729;49.838;8.650;2022-09-09T00:34:28;99280.75;;;18.05;83.29
43119;BME280;28729;49.838;8.650;2022-09-09T00:38:35;99270.72;;;18.18;83.11
43119;BME280;28729;49.838;8.650;2022-09-09T00:42:42;99270.81;;;18.27;82.50
43119;BME280;28729;49.838;8.650;2022-09-09T00:46:56;99281.34;;;18.30;82.35
43119;BME280;28729;49.838;8.650;2022-09-09T00:51:10;99282.34;;;18.34;81.35
43119;BME280;28729;49.838;8.650;2022-09-09T00:55:52;99289.78;;;18.38;81.95
43119;BME280;28729;49.838;8.650;2022-09-09T01:04:12;99280.03;;;18.50;81.04
43119;BME280;28729;49.838;8.650;2022-09-09T01:12:51;99271.97;;;18.48;80.42
43119;BME280;28729;49.838;8.650;2022-09-09T01:16:58;99269.81;;;18.45;80.79
43119;BME280;28729;49.838;8.650;2022-09-09T01:25:56;99269.41;;;18.38;81.02
43119;BME280;28729;49.838;8.650;2022-09-09T01:29:56;99271.00;;;18.30;81.62
43119;BME280;28729;49.838;8.650;2022-09-09T01:33:59;99269.16;;;18.26;81.51
43119;BME280;28729;49.838;8.650;2022-09-09T01:38:01;99265.25;;;18.13;82.31
43119;BME280;28729;49.838;8.650;2022-09-09T01:42:05;99261.38;;;18.00;82.54
43119;BME280;28729;49.838;8.650;2022-09-09T01:46:08;99262.19;;;17.87;83.67
43119;BME280;28729;49.838;8.650;2022-09-09T01:50:13;99260.44;;;17.77;84.54
43119;BME280;28729;49.838;8.650;2022-09-09T01:54:17;99260.13;;;17.65;85.43
43119;BME280;28729;49.838;8.650;2022-09-09T01:58:32;99265.28;;;17.58;87.06
43119;BME280;28729;49.838;8.650;2022-09-09T02:06:53;99260.31;;;17.54;88.03
43119;BME280;28729;49.838;8.650;2022-09-09T02:11:09;99261.38;;;17.59;87.16
43119;BME280;28729;49.838;8.650;2022-09-09T02:15:28;99263.00;;;17.60;87.78
43119;BME280;28729;49.838;8.650;2022-09-09T02:19:34;99263.22;;;17.63;87.56
43119;BME280;28729;49.838;8.650;2022-09-09T02:23:47;99268.28;;;17.61;88.32
43119;BME280;28729;49.838;8.650;2022-09-09T02:27:50;99280.97;;;17.67;87.68
43119;BME280;28729;49.838;8.650;2022-09-09T02:31:55;99279.53;;;17.70;87.87
43119;BME280;28729;49.838;8.650;2022-09-09T02:36:03;99284.69;;;17.76;87.50
43119;BME280;28729;49.838;8.650;2022-09-09T02:40:10;99283.88;;;17.76;88.03
43119;BME280;28729;49.838;8.650;2022-09-09T02:44:18;99285.22;;;17.79;87.73
43119;BME280;28729;49.838;8.650;2022-09-09T02:48:30;99271.28;;;17.79;87.90
43119;BME280;28729;49.838;8.650;2022-09-09T02:57:04;99263.03;;;17.73;87.96
43119;BME280;28729;49.838;8.650;2022-09-09T03:01:11;99279.84;;;17.68;87.97
43119;BME280;28729;49.838;8.650;2022-09-09T03:05:13;99278.69;;;17.69;87.69
43119;BME280;28729;49.838;8.650;2022-09-09T03:09:15;99275.50;;;17.62;88.95
43119;BME280;28729;49.838;8.650;2022-09-09T03:13:17;99274.78;;;17.57;89.31
43119;BME280;28729;49.838;8.650;2022-09-09T03:17:20;99271.69;;;17.58;89.26
43119;BME280;28729;49.838;8.650;2022-09-09T03:21:26;99270.97;;;17.52;89.83
43119;BME280;28729;49.838;8.650;2022-09-09T03:25:29;99270.44;;;17.50;89.70
43119;BME280;28729;49.838;8.650;2022-09-09T03:29:31;99273.31;;;17.45;90.08
43119;BME280;28729;49.838;8.650;2022-09-09T03:33:39;99280.34;;;17.43;89.83
43119;BME280;28729;49.838;8.650;2022-09-09T03:37:44;99278.78;;;17.37;89.98
43119;BME280;28729;49.838;8.650;2022-09-09T03:41:47;99290.03;;;17.31;90.75
43119;BME280;28729;49.838;8.650;2022-09-09T03:45:50;99284.16;;;17.33;91.13
43119;BME280;28729;49.838;8.650;2022-09-09T03:49:52;99281.69;;;17.31;91.79
43119;BME280;28729;49.838;8.650;2022-09-09T03:53:53;99273.63;;;17.30;91.83
43119;BME280;28729;49.838;8.650;2022-09-09T03:57:57;99275.78;;;17.19;92.07
43119;BME280;28729;49.838;8.650;2022-09-09T04:01:58;99265.44;;;17.06;93.70
43119;BME280;28729;49.838;8.650;2022-09-09T04:06:02;99267.50;;;17.00;93.76
43119;BME280;28729;49.838;8.650;2022-09-09T04:10:06;99261.09;;;17.00;93.54
43119;BME280;28729;49.838;8.650;2022-09-09T04:14:12;99261.09;;;17.00;94.10
43119;BME280;28729;49.838;8.650;2022-09-09T04:18:14;99263.28;;;17.03;94.56
43119;BME280;28729;49.838;8.650;2022-09-09T04:22:20;99270.41;;;17.09;94.02
43119;BME280;28729;49.838;8.650;2022-09-09T04:26:24;99259.25;;;17.09;93.92
43119;BME280;28729;49.838;8.650;2022-09-09T04:30:26;99261.22;;;17.08;93.47
43119;BME280;28729;49.838;8.650;2022-09-09T04:34:29;99263.28;;;17.03;93.57
43119;BME280;28729;49.838;8.650;2022-09-09T04:38:31;99261.28;;;16.90;94.49
43119;BME280;28729;49.838;8.650;2022-09-09T04:42:35;99263.41;;;16.79;95.06
43119;BME280;28729;49.838;8.650;2022-09-09T04:46:37;99260.69;;;16.74;95.50
43119;BME280;28729;49.838;8.650;2022-09-09T04:50:39;99278.31;;;16.69;95.48
43119;BME280;28729;49.838;8.650;2022-09-09T04:54:44;99271.78;;;16.60;96.52
43119;BME280;28729;49.838;8.650;2022-09-09T04:58:47;99281.22;;;16.59;97.13
43119;BME280;28729;49.838;8.650;2022-09-09T05:02:50;99285.75;;;16.55;98.29
43119;BME280;28729;49.838;8.650;2022-09-09T05:06:52;99289.50;;;16.64;97.61
43119;BME280;28729;49.838;8.650;2022-09-09T05:10:54;99303.03;;;16.71;96.94
43119;BME280;28729;49.838;8.650;2022-09-09T05:14:56;99302.66;;;16.77;96.26
43119;BME280;28729;49.838;8.650;2022-09-09T05:18:58;99306.19;;;16.83;95.84
43119;BME280;28729;49.838;8.650;2022-09-09T05:23:07;99302.28;;;16.84;95.33
43119;BME280;28729;49.838;8.650;2022-09-09T05:27:09;99299.41;;;16.89;95.03
43119;BME280;28729;49.838;8.650;2022-09-09T05:31:15;99321.66;;;16.89;95.26
43119;BME280;28729;49.838;8.650;2022-09-09T05:35:19;99322.41;;;16.95;95.06
43119;BME280;28729;49.838;8.650;2022-09-09T05:39:23;99323.16;;;17.00;94.73
43119;BME280;28729;49.838;8.650;2022-09-09T05:43:26;99339.31;;;16.98;94.64
43119;BME280;28729;49.838;8.650;2022-09-09T05:47:29;99338.97;;;16.86;96.01
43119;BME280;28729;49.838;8.650;2022-09-09T05:51:32;99346.09;;;16.92;95.80
43119;BME280;28729;49.838;8.650;2022-09-09T05:55:40;99342.41;;;16.97;95.63
43119;BME280;28729;49.838;8.650;2022-09-09T05:59:42;99345.03;;;17.07;95.35
43119;BME280;28729;49.838;8.650;2022-09-09T06:03:45;99353.75;;;17.19;94.77
43119;BME280;28729;49.838;8.650;2022-09-09T06:07:47;99357.47;;;17.28;94.36
43119;BME280;28729;49.838;8.650;2022-09-09T06:11:48;99349.56;;;17.36;93.87
43119;BME280;28729;49.838;8.650;2022-09-09T06:15:51;99348.84;;;17.44;93.55
43119;BME280;28729;49.838;8.650;2022-09-09T06:19:53;99345.16;;;17.62;92.36
43119;BME280;28729;49.838;8.650;2022-09-09T06:23:55;99334.25;;;17.80;91.46
43119;BME280;28729;49.838;8.650;2022-09-09T06:28:01;99342.72;;;18.02;90.56
43119;BME280;28729;49.838;8.650;2022-09-09T06:32:04;99341.78;;;18.07;89.51
43119;BME280;28729;49.838;8.650;2022-09-09T06:36:14;99334.16;;;18.12;89.64
43119;BME280;28729;49.838;8.650;2022-09-09T06:40:17;99348.09;;;18.12;89.12
43119;BME280;28729;49.838;8.650;2022-09-09T06:44:19;99353.56;;;18.17;89.09
43119;BME280;28729;49.838;8.650;2022-09-09T06:48:21;99357.38;;;18.21;88.30
43119;BME280;28729;49.838;8.650;2022-09-09T06:52:24;99360.97;;;18.22;88.70
43119;BME280;28729;49.838;8.650;2022-09-09T06:56:33;99359.19;;;18.40;88.17
43119;BME280;28729;49.838;8.650;2022-09-09T07:00:40;99363.09;;;18.53;87.24
43119;BME280;28729;49.838;8.650;2022-09-09T07:04:43;99362.28;;;18.52;86.45
43119;BME280;28729;49.838;8.650;2022-09-09T07:08:53;99348.22;;;18.43;87.06
43119;BME280;28729;49.838;8.650;2022-09-09T07:13:00;99351.31;;;18.56;87.08
43119;BME280;28729;49.838;8.650;2022-09-09T07:17:03;99348.03;;;18.54;86.59
43119;BME280;28729;49.838;8.650;2022-09-09T07:21:11;99358.13;;;18.63;86.71
43119;BME280;28729;49.838;8.650;2022-09-09T07:25:16;99349.66;;;18.55;86.64
43119;BME280;28729;49.838;8.650;2022-09-09T07:29:20;99344.06;;;18.68;85.97
43119;BME280;28729;49.838;8.650;2022-09-09T07:33:25;99359.34;;;18.71;86.20
43119;BME280;28729;49.838;8.650;2022-09-09T07:37:27;99360.75;;;18.82;85.44
43119;BME280;28729;49.838;8.650;2022-09-09T07:45:35;99377.84;;;19.03;85.29
43119;BME280;28729;49.838;8.650;2022-09-09T07:49:37;99370.00;;;19.28;84.50
43119;BME280;28729;49.838;8.650;2022-09-09T07:53:40;99363.88;;;19.48;82.67
43119;BME280;28729;49.838;8.650;2022-09-09T07:57:42;99370.09;;;19.68;81.95
43119;BME280;28729;49.838;8.650;2022-09-09T08:01:47;99370.31;;;19.80;81.41
43119;BME280;28729;49.838;8.650;2022-09-09T08:05:53;99388.75;;;19.90;80.14
43119;BME280;28729;49.838;8.650;2022-09-09T08:09:54;99380.88;;;19.92;79.75
43119;BME280;28729;49.838;8.650;2022-09-09T08:14:02;99392.69;;;20.20;79.17
43119;BME280;28729;49.838;8.650;2022-09-09T08:18:04;99393.16;;;20.22;78.78
43119;BME280;28729;49.838;8.650;2022-09-09T08:22:07;99389.91;;;20.29;78.68
43119;BME280;28729;49.838;8.650;2022-09-09T08:26:19;99399.00;;;20.52;77.07
43119;BME280;28729;49.838;8.650;2022-09-09T08:30:24;99396.91;;;20.57;75.45
43119;BME280;28729;49.838;8.650;2022-09-09T08:34:26;99410.78;;;20.71;74.18
43119;BME280;28729;49.838;8.650;2022-09-09T08:38:31;99405.19;;;20.80;74.43
43119;BME280;28729;49.838;8.650;2022-09-09T08:42:41;99400.22;;;20.59;73.63
43119;BME280;28729;49.838;8.650;2022-09-09T08:51:34;99396.84;;;20.40;74.10
43119;BME280;28729;49.838;8.650;2022-09-09T08:55:51;99387.38;;;20.76;73.47
43119;BME280;28729;49.838;8.650;2022-09-09T09:00:00;99383.63;;;21.15;71.92
43119;BME280;28729;49.838;8.650;2022-09-09T09:04:07;99378.91;;;21.71;69.48
43119;BME280;28729;49.838;8.650;2022-09-09T09:08:31;99389.28;;;22.26;66.53
43119;BME280;28729;49.838;8.650;2022-09-09T09:12:41;99385.75;;;22.38;66.27
43119;BME280;28729;49.838;8.650;2022-09-09T09:17:05;99380.94;;;22.00;65.82
43119;BME280;28729;49.838;8.650;2022-09-09T09:21:20;99381.53;;;22.53;64.64
43119;BME280;28729;49.838;8.650;2022-09-09T09:25:34;99392.88;;;23.07;62.42
43119;BME280;28729;49.838;8.650;2022-09-09T09:29:37;99392.53;;;22.88;62.02
43119;BME280;28729;49.838;8.650;2022-09-09T09:34:02;99382.47;;;22.57;63.89
43119;BME280;28729;49.838;8.650;2022-09-09T09:38:12;99393.06;;;22.22;64.08
43119;BME280;28729;49.838;8.650;2022-09-09T09:42:57;99382.28;;;21.94;65.23
43119;BME280;28729;49.838;8.650;2022-09-09T09:51:20;99383.06;;;22.03;67.63
43119;BME280;28729;49.838;8.650;2022-09-09T09:55:25;99378.97;;;22.60;64.06
43119;BME280;28729;49.838;8.650;2022-09-09T10:04:00;99375.19;;;22.86;64.50
43119;BME280;28729;49.838;8.650;2022-09-09T10:16:55;99387.72;;;22.88;58.44
43119;BME280;28729;49.838;8.650;2022-09-09T10:21:14;99370.34;;;22.95;60.33
43119;BME280;28729;49.838;8.650;2022-09-09T10:25:31;99379.47;;;22.62;60.12
43119;BME280;28729;49.838;8.650;2022-09-09T10:34:42;99372.41;;;21.88;62.82
43119;BME280;28729;49.838;8.650;2022-09-09T10:38:48;99363.13;;;21.49;68.32
43119;BME280;28729;49.838;8.650;2022-09-09T10:47:50;99350.41;;;20.30;80.69
43119;BME280;28729;49.838;8.650;2022-09-09T10:52:14;99358.25;;;19.71;83.47
43119;BME280;28729;49.838;8.650;2022-09-09T10:56:21;99363.25;;;19.29;88.69
43119;BME280;28729;49.838;8.650;2022-09-09T11:00:36;99353.50;;;18.45;97.18
43119;BME280;28729;49.838;8.650;2022-09-09T11:04:43;99354.91;;;17.92;100.00
43119;BME280;28729;49.838;8.650;2022-09-09T11:08:46;99347.25;;;17.70;100.00
43119;BME280;28729;49.838;8.650;2022-09-09T11:13:02;99343.91;;;17.54;100.00
43119;BME280;28729;49.838;8.650;2022-09-09T11:17:25;99343.06;;;17.40;100.00
43119;BME280;28729;49.838;8.650;2022-09-09T11:21:36;99348.16;;;17.52;100.00
43119;BME280;28729;49.838;8.650;2022-09-09T11:25:42;99340.84;;;18.11;100.00
43119;BME280;28729;49.838;8.650;2022-09-09T11:30:04;99343.72;;;18.34;100.00
43119;BME280;28729;49.838;8.650;2022-09-09T11:34:37;99338.13;;;18.34;100.00
43119;BME280;28729;49.838;8.650;2022-09-09T11:38:48;99345.88;;;18.23;100.00
43119;BME280;28729;49.838;8.650;2022-09-09T11:47:28;99333.75;;;20.25;100.00
43119;BME280;28729;49.838;8.650;2022-09-09T11:51:47;99339.78;;;21.02;100.00
43119;BME280;28729;49.838;8.650;2022-09-09T12:00:48;99346.28;;;20.27;100.00
43119;BME280;28729;49.838;8.650;2022-09-09T12:05:12;99356.63;;;19.70;100.00
43119;BME280;28729;49.838;8.650;2022-09-09T12:09:25;99352.41;;;19.58;100.00
43119;BME280;28729;49.838;8.650;2022-09-09T12:13:28;99348.06;;;19.66;100.00
43119;BME280;28729;49.838;8.650;2022-09-09T12:17:31;99344.88;;;19.90;98.23
43119;BME280;28729;49.838;8.650;2022-09-09T12:21:42;99341.81;;;20.18;97.04
43119;BME280;28729;49.838;8.650;2022-09-09T12:26:00;99347.88;;;20.02;89.02
43119;BME280;28729;49.838;8.650;2022-09-09T12:30:09;99327.84;;;20.18;89.29
43119;BME280;28729;49.838;8.650;2022-09-09T12:34:17;99328.38;;;20.29;88.19
43119;BME280;28729;49.838;8.650;2022-09-09T12:38:38;99336.44;;;20.47;84.96
43119;BME280;28729;49.838;8.650;2022-09-09T12:42:40;99339.63;;;20.72;81.53
43119;BME280;28729;49.838;8.650;2022-09-09T12:46:45;99344.25;;;20.68;81.01
43119;BME280;28729;49.838;8.650;2022-09-09T12:50:50;99346.00;;;20.46;78.71
43119;BME280;28729;49.838;8.650;2022-09-09T12:54:52;99343.56;;;20.54;78.52
43119;BME280;28729;49.838;8.650;2022-09-09T12:58:56;99343.88;;;20.52;76.93
43119;BME280;28729;49.838;8.650;2022-09-09T13:03:01;99327.28;;;20.56;74.19
43119;BME280;28729;49.838;8.650;2022-09-09T13:07:07;99318.47;;;20.40;72.27
43119;BME280;28729;49.838;8.650;2022-09-09T13:11:15;99320.16;;;20.49;73.40
43119;BME280;28729;49.838;8.650;2022-09-09T13:15:23;99315.22;;;20.46;71.51
43119;BME280;28729;49.838;8.650;2022-09-09T13:19:26;99326.72;;;20.45;70.90
43119;BME280;28729;49.838;8.650;2022-09-09T13:23:32;99330.50;;;20.40;70.17
43119;BME280;28729;49.838;8.650;2022-09-09T13:27:39;99330.13;;;20.16;70.61
43119;BME280;28729;49.838;8.650;2022-09-09T13:31:41;99327.69;;;19.74;71.44
43119;BME280;28729;49.838;8.650;2022-09-09T13:35:48;99332.13;;;19.44;72.64
43119;BME280;28729;49.838;8.650;2022-09-09T13:39:52;99317.56;;;19.25;73.69
43119;BME280;28729;49.838;8.650;2022-09-09T13:43:55;99338.13;;;19.06;74.20
43119;BME280;28729;49.838;8.650;2022-09-09T13:47:56;99346.06;;;18.90;76.02
43119;BME280;28729;49.838;8.650;2022-09-09T13:52:14;99363.06;;;19.03;76.82
43119;BME280;28729;49.838;8.650;2022-09-09T13:56:18;99364.88;;;19.30;77.12
43119;BME280;28729;49.838;8.650;2022-09-09T14:00:20;99370.59;;;19.47;79.19
43119;BME280;28729;49.838;8.650;2022-09-09T14:04:22;99383.81;;;19.55;79.90
43119;BME280;28729;49.838;8.650;2022-09-09T14:08:26;99369.88;;;19.64;81.82
43119;BME280;28729;49.838;8.650;2022-09-09T14:12:30;99371.00;;;19.86;81.82
43119;BME280;28729;49.838;8.650;2022-09-09T14:16:31;99373.88;;;20.12;80.98
43119;BME280;28729;49.838;8.650;2022-09-09T14:20:33;99370.03;;;20.47;79.20
43119;BME280;28729;49.838;8.650;2022-09-09T14:24:34;99361.03;;;20.68;76.53
43119;BME280;28729;49.838;8.650;2022-09-09T14:28:40;99363.34;;;20.75;75.38
43119;BME280;28729;49.838;8.650;2022-09-09T14:32:57;99345.72;;;20.83;74.88
43119;BME280;28729;49.838;8.650;2022-09-09T14:36:59;99339.13;;;21.05;73.25
43119;BME280;28729;49.838;8.650;2022-09-09T14:41:01;99341.41;;;21.20;72.86
43119;BME280;28729;49.838;8.650;2022-09-09T14:45:05;99336.13;;;21.27;71.50
43119;BME280;28729;49.838;8.650;2022-09-09T14:49:06;99332.31;;;21.23;70.72
43119;BME280;28729;49.838;8.650;2022-09-09T14:53:09;99316.50;;;21.27;70.46
43119;BME280;28729;49.838;8.650;2022-09-09T14:57:11;99311.06;;;21.22;68.83
43119;BME280;28729;49.838;8.650;2022-09-09T15:01:15;99313.22;;;21.25;68.19
43119;BME280;28729;49.838;8.650;2022-09-09T15:05:17;99309.91;;;21.23;68.67
43119;BME280;28729;49.838;8.650;2022-09-09T15:09:18;99306.97;;;21.11;67.69
43119;BME280;28729;49.838;8.650;2022-09-09T15:13:20;99314.56;;;21.10;68.92
43119;BME280;28729;49.838;8.650;2022-09-09T15:17:23;99311.63;;;20.98;69.20
43119;BME280;28729;49.838;8.650;2022-09-09T15:21:31;99321.00;;;20.93;69.79
43119;BME280;28729;49.838;8.650;2022-09-09T15:25:34;99308.00;;;20.89;70.28
43119;BME280;28729;49.838;8.650;2022-09-09T15:29:39;99313.91;;;20.79;70.12
43119;BME280;28729;49.838;8.650;2022-09-09T15:33:41;99303.88;;;20.78;70.65
43119;BME280;28729;49.838;8.650;2022-09-09T15:37:42;99313.59;;;20.63;72.56
43119;BME280;28729;49.838;8.650;2022-09-09T15:41:45;99334.00;;;20.55;72.33
43119;BME280;28729;49.838;8.650;2022-09-09T15:45:53;99345.66;;;20.39;72.52
43119;BME280;28729;49.838;8.650;2022-09-09T15:49:58;99334.69;;;20.78;71.49
43119;BME280;28729;49.838;8.650;2022-09-09T15:53:59;99333.34;;;21.19;70.32
43119;BME280;28729;49.838;8.650;2022-09-09T15:58:01;99332.81;;;21.25;70.42
43119;BME280;28729;49.838;8.650;2022-09-09T16:02:03;99346.19;;;21.20;69.60
43119;BME280;28729;49.838;8.650;2022-09-09T16:06:06;99346.19;;;21.02;70.10
43119;BME280;28729;49.838;8.650;2022-09-09T16:10:09;99343.41;;;20.67;71.07
43119;BME280;28729;49.838;8.650;2022-09-09T16:14:10;99344.25;;;20.77;69.80
43119;BME280;28729;49.838;8.650;2022-09-09T16:18:12;99342.59;;;20.84;67.61
43119;BME280;28729;49.838;8.650;2022-09-09T16:22:14;99347.38;;;20.84;66.14
43119;BME280;28729;49.838;8.650;2022-09-09T16:26:17;99353.47;;;20.68;66.01
43119;BME280;28729;49.838;8.650;2022-09-09T16:30:19;99341.34;;;20.33;68.13
43119;BME280;28729;49.838;8.650;2022-09-09T16:34:21;99330.56;;;19.92;68.86
43119;BME280;28729;49.838;8.650;2022-09-09T16:38:23;99340.66;;;19.70;70.17
43119;BME280;28729;49.838;8.650;2022-09-09T16:42:25;99339.59;;;19.57;70.70
43119;BME280;28729;49.838;8.650;2022-09-09T16:46:28;99351.97;;;19.34;72.02
43119;BME280;28729;49.838;8.650;2022-09-09T16:50:30;99354.50;;;19.22;73.15
43119;BME280;28729;49.838;8.650;2022-09-09T16:54:32;99353.97;;;18.97;73.38
43119;BME280;28729;49.838;8.650;2022-09-09T16:58:33;99352.09;;;18.84;73.92
43119;BME280;28729;49.838;8.650;2022-09-09T17:02:35;99357.19;;;18.68;74.06
43119;BME280;28729;49.838;8.650;2022-09-09T17:06:37;99365.97;;;18.61;74.96
43119;BME280;28729;49.838;8.650;2022-09-09T17:10:42;99360.63;;;18.51;76.22
43119;BME280;28729;49.838;8.650;2022-09-09T17:14:44;99369.63;;;18.48;77.45
43119;BME280;28729;49.838;8.650;2022-09-09T17:18:50;99368.72;;;18.39;78.38
43119;BME280;28729;49.838;8.650;2022-09-09T17:22:52;99368.38;;;18.40;78.59
43119;BME280;28729;49.838;8.650;2022-09-09T17:26:54;99364.50;;;18.28;79.89
43119;BME280;28729;49.838;8.650;2022-09-09T17:30:58;99367.56;;;18.26;80.96
43119;BME280;28729;49.838;8.650;2022-09-09T17:35:02;99372.66;;;18.24;81.87
43119;BME280;28729;49.838;8.650;2022-09-09T17:39:07;99387.31;;;18.02;86.07
43119;BME280;28729;49.838;8.650;2022-09-09T17:43:09;99403.00;;;17.84;88.34
43119;BME280;28729;49.838;8.650;2022-09-09T17:47:10;99393.47;;;17.71;88.76
43119;BME280;28729;49.838;8.650;2022-09-09T17:51:16;99398.81;;;17.68;88.71
43119;BME280;28729;49.838;8.650;2022-09-09T17:55:20;99387.34;;;17.56;90.98
43119;BME280;28729;49.838;8.650;2022-09-09T17:59:22;99380.59;;;17.43;92.07
43119;BME280;28729;49.838;8.650;2022-09-09T18:03:25;99384.53;;;17.42;91.79
43119;BME280;28729;49.838;8.650;2022-09-09T18:07:27;99396.06;;;17.35;92.49
43119;BME280;28729;49.838;8.650;2022-09-09T18:11:31;99394.19;;;17.30;93.89
43119;BME280;28729;49.838;8.650;2022-09-09T18:15:36;99411.50;;;17.27;94.01
43119;BME280;28729;49.838;8.650;2022-09-09T18:19:50;99414.47;;;17.17;95.03
43119;BME280;28729;49.838;8.650;2022-09-09T18:23:52;99422.06;;;17.12;96.43
43119;BME280;28729;49.838;8.650;2022-09-09T18:27:54;99428.91;;;17.00;100.00
43119;BME280;28729;49.838;8.650;2022-09-09T18:31:56;99427.19;;;16.85;100.00
43119;BME280;28729;49.838;8.650;2022-09-09T18:36:03;99437.06;;;16.78;100.00
43119;BME280;28729;49.838;8.650;2022-09-09T18:40:05;99450.63;;;16.60;100.00
43119;BME280;28729;49.838;8.650;2022-09-09T18:44:10;99461.19;;;16.39;100.00
43119;BME280;28729;49.838;8.650;2022-09-09T18:48:13;99472.72;;;16.28;100.00
43119;BME280;28729;49.838;8.650;2022-09-09T18:52:15;99473.34;;;16.20;100.00
43119;BME280;28729;49.838;8.650;2022-09-09T18:56:17;99481.88;;;16.04;100.00
43119;BME280;28729;49.838;8.650;2022-09-09T19:00:19;99478.31;;;15.99;100.00
43119;BME280;28729;49.838;8.650;2022-09-09T19:04:22;99473.38;;;15.90;100.00
43119;BME280;28729;49.838;8.650;2022-09-09T19:08:24;99478.72;;;15.87;100.00
43119;BME280;28729;49.838;8.650;2022-09-09T19:12:26;99479.53;;;15.87;100.00
43119;BME280;28729;49.838;8.650;2022-09-09T19:16:30;99492.88;;;15.85;100.00
43119;BME280;28729;49.838;8.650;2022-09-09T19:20:31;99496.31;;;15.77;100.00
43119;BME280;28729;49.838;8.650;2022-09-09T19:24:33;99511.09;;;15.67;100.00
43119;BME280;28729;49.838;8.650;2022-09-09T19:28:35;99532.31;;;15.53;100.00
43119;BME280;28729;49.838;8.650;2022-09-09T19:32:37;99535.72;;;15.40;100.00
43119;BME280;28729;49.838;8.650;2022-09-09T19:36:53;99526.09;;;15.27;100.00
43119;BME280;28729;49.838;8.650;2022-09-09T19:40:55;99520.91;;;15.15;100.00
43119;BME280;28729;49.838;8.650;2022-09-09T19:44:57;99525.66;;;15.10;100.00
43119;BME280;28729;49.838;8.650;2022-09-09T19:48:59;99511.28;;;15.02;100.00
43119;BME280;28729;49.838;8.650;2022-09-09T19:53:01;99502.69;;;14.99;100.00
43119;BME280;28729;49.838;8.650;2022-09-09T19:57:04;99506.59;;;14.98;100.00
43119;BME280;28729;49.838;8.650;2022-09-09T20:01:13;99489.09;;;15.02;100.00
43119;BME280;28729;49.838;8.650;2022-09-09T20:05:15;99501.84;;;14.98;100.00
43119;BME280;28729;49.838;8.650;2022-09-09T20:09:17;99487.72;;;14.95;100.00
43119;BME280;28729;49.838;8.650;2022-09-09T20:13:19;99479.72;;;14.88;100.00
43119;BME280;28729;49.838;8.650;2022-09-09T20:17:21;99501.91;;;14.93;100.00
43119;BME280;28729;49.838;8.650;2022-09-09T20:21:30;99505.50;;;14.94;100.00
43119;BME280;28729;49.838;8.650;2022-09-09T20:25:34;99497.19;;;14.89;100.00
43119;BME280;28729;49.838;8.650;2022-09-09T20:29:36;99489.13;;;14.92;100.00
43119;BME280;28729;49.838;8.650;2022-09-09T20:33:38;99496.94;;;14.90;100.00
43119;BME280;28729;49.838;8.650;2022-09-09T20:37:41;99481.97;;;14.86;100.00
43119;BME280;28729;49.838;8.650;2022-09-09T20:41:43;99486.44;;;14.82;100.00
43119;BME280;28729;49.838;8.650;2022-09-09T20:45:46;99481.44;;;14.79;100.00
43119;BME280;28729;49.838;8.650;2022-09-09T20:49:47;99474.53;;;14.76;100.00
43119;BME280;28729;49.838;8.650;2022-09-09T20:53:57;99484.25;;;14.74;100.00
43119;BME280;28729;49.838;8.650;2022-09-09T20:57:59;99476.75;;;14.69;100.00
43119;BME280;28729;49.838;8.650;2022-09-09T21:02:01;99485.38;;;14.68;100.00
43119;BME280;28729;49.838;8.650;2022-09-09T21:06:05;99477.09;;;14.63;100.00
43119;BME280;28729;49.838;8.650;2022-09-09T21:10:07;99471.78;;;14.66;100.00
43119;BME280;28729;49.838;8.650;2022-09-09T21:14:09;99482.03;;;14.71;100.00
43119;BME280;28729;49.838;8.650;2022-09-09T21:18:11;99469.25;;;14.75;100.00
43119;BME280;28729;49.838;8.650;2022-09-09T21:22:12;99472.81;;;14.80;100.00
43119;BME280;28729;49.838;8.650;2022-09-09T21:26:15;99480.31;;;14.85;100.00
43119;BME280;28729;49.838;8.650;2022-09-09T21:30:18;99473.94;;;14.85;100.00
43119;BME280;28729;49.838;8.650;2022-09-09T21:34:20;99468.66;;;14.83;100.00
43119;BME280;28729;49.838;8.650;2022-09-09T21:38:23;99475.09;;;14.78;100.00
43119;BME280;28729;49.838;8.650;2022-09-09T21:42:25;99473.16;;;14.69;100.00
43119;BME280;28729;49.838;8.650;2022-09-09T21:46:26;99476.00;;;14.58;100.00
43119;BME280;28729;49.838;8.650;2022-09-09T21:50:29;99477.13;;;14.47;100.00
43119;BME280;28729;49.838;8.650;2022-09-09T21:54:31;99478.81;;;14.43;100.00
43119;BME280;28729;49.838;8.650;2022-09-09T21:58:33;99481.03;;;14.41;100.00
43119;BME280;28729;49.838;8.650;2022-09-09T22:02:35;99488.78;;;14.39;100.00
43119;BME280;28729;49.838;8.650;2022-09-09T22:06:37;99486.31;;;14.38;100.00
43119;BME280;28729;49.838;8.650;2022-09-09T22:10:41;99482.72;;;14.37;100.00
43119;BME280;28729;49.838;8.650;2022-09-09T22:14:43;99474.97;;;14.34;100.00
43119;BME280;28729;49.838;8.650;2022-09-09T22:18:49;99481.34;;;14.34;100.00
43119;BME280;28729;49.838;8.650;2022-09-09T22:22:51;99476.06;;;14.33;100.00
43119;BME280;28729;49.838;8.650;2022-09-09T22:26:53;99474.41;;;14.32;100.00
43119;BME280;28729;49.838;8.650;2022-09-09T22:30:56;99475.53;;;14.31;100.00
43119;BME280;28729;49.838;8.650;2022-09-09T22:34:57;99474.69;;;14.30;100.00
43119;BME280;28729;49.838;8.650;2022-09-09T22:38:59;99478.03;;;14.27;100.00
43119;BME280;28729;49.838;8.650;2022-09-09T22:43:03;99471.13;;;14.25;100.00
43119;BME280;28729;49.838;8.650;2022-09-09T22:47:05;99468.63;;;14.23;100.00
43119;BME280;28729;49.838;8.650;2022-09-09T22:51:09;99476.69;;;14.20;100.00